Time;durP1;ratioP1;P1;durP2;ratioP2;P2;SDS_P1;SDS_P2;PMS_P1;PMS_P2;Temp;Humidity;BMP_temperature;BMP_pressure;BME280_temperature;BME280_humidity;BME280_pressure;Samples;Min_cycle;Max_cycle;Signal;HPM_P1;HPM_P2
2022/09/27 00:00:35;;;;;;;;;;;17.80;65.20;;;;;;5002081;28;92118;-41
2022/09/27 00:03:01;;;;;;;;;;;17.80;65.50;;;;;;5001411;28;92960;-42
2022/09/27 00:05:27;;;;;;;;;;;17.80;65.40;;;;;;5001273;28;93080;-42
2022/09/27 00:07:52;;;;;;;;;;;17.80;65.30;;;;;;5002154;28;92092;-41
2022/09/27 00:10:18;;;;;;;;;;;17.80;65.40;;;;;;5001691;28;92463;-41
2022/09/27 00:12:44;;;;;;;;;;;17.80;65.30;;;;;;5004464;28;93048;-41
2022/09/27 00:15:10;;;;;;;;;;;17.90;65.40;;;;;;5001893;28;92300;-42
2022/09/27 00:17:36;;;;;;;;;;;17.80;65.20;;;;;;5001386;28;92990;-42
2022/09/27 00:20:03;;;;;;;;;;;17.80;65.20;;;;;;5002204;28;91420;-41
2022/09/27 00:22:30;;;;;;;;;;;17.80;65.20;;;;;;5000279;28;95906;-41
2022/09/27 00:24:55;;;;;;;;;;;17.80;65.10;;;;;;5001086;28;92957;-41
2022/09/27 00:27:21;;;;;;;;;;;17.80;65.30;;;;;;5001023;28;93015;-42
2022/09/27 00:29:46;;;;;;;;;;;17.80;65.20;;;;;;5001480;28;93600;-41
2022/09/27 00:32:12;;;;;;;;;;;17.80;65.20;;;;;;5001179;28;92999;-41
2022/09/27 00:34:39;;;;;;;;;;;17.80;65.10;;;;;;5004452;28;92130;-42
2022/09/27 00:37:04;;;;;;;;;;;17.80;65.10;;;;;;5000939;28;93260;-42
2022/09/27 00:39:30;;;;;;;;;;;17.80;65.00;;;;;;5001448;28;92125;-42
2022/09/27 00:41:55;;;;;;;;;;;17.80;65.00;;;;;;5001488;28;92335;-41
2022/09/27 00:44:24;;;;;;;;;;;17.80;65.00;;;;;;5001474;28;92129;-41
2022/09/27 00:46:55;;;;;;;;;;;17.80;64.90;;;;;;5001082;28;93047;-41
2022/09/27 00:49:20;;;;;;;;;;;17.80;64.90;;;;;;5001105;28;92467;-41
2022/09/27 00:51:48;;;;;;;;;;;17.80;65.50;;;;;;5000005;28;94062;-42
2022/09/27 00:54:15;;;;;;;;;;;17.80;64.90;;;;;;5001341;28;92111;-42
2022/09/27 00:56:41;;;;;;;;;;;17.70;64.80;;;;;;5003929;28;92476;-42
2022/09/27 00:59:15;;;;;;;;;;;17.80;64.90;;;;;;5001157;28;92111;-42
2022/09/27 01:01:41;;;;;;;;;;;17.70;64.80;;;;;;5000968;28;92331;-42
2022/09/27 01:04:08;;;;;;;;;;;17.70;64.80;;;;;;5000550;28;92727;-41
2022/09/27 01:06:34;;;;;;;;;;;17.70;64.80;;;;;;5001139;28;92697;-42
2022/09/27 01:08:59;;;;;;;;;;;17.70;64.80;;;;;;5001034;28;92894;-42
2022/09/27 01:11:25;;;;;;;;;;;17.70;64.70;;;;;;5000506;28;93288;-42
2022/09/27 01:13:50;;;;;;;;;;;17.70;64.70;;;;;;5001116;28;92146;-41
2022/09/27 01:16:19;;;;;;;;;;;17.70;64.70;;;;;;5003132;28;92983;-41
2022/09/27 01:18:55;;;;;;;;;;;17.70;64.70;;;;;;5000960;28;92112;-41
2022/09/27 01:21:27;;;;;;;;;;;17.70;64.70;;;;;;5000955;28;92118;-42
2022/09/27 01:23:58;;;;;;;;;;;17.70;64.70;;;;;;5000281;28;93109;-42
2022/09/27 01:26:42;;;;;;;;;;;17.70;64.70;;;;;;5000838;28;92139;-42
2022/09/27 01:29:26;;;;;;;;;;;17.70;64.70;;;;;;5000536;28;92412;-42
2022/09/27 01:31:58;;;;;;;;;;;17.70;65.30;;;;;;5000022;28;92993;-42
2022/09/27 01:34:30;;;;;;;;;;;17.60;64.70;;;;;;5001321;28;91304;-42
2022/09/27 01:37:06;;;;;;;;;;;17.70;64.70;;;;;;5000470;28;92163;-41
2022/09/27 01:39:51;;;;;;;;;;;17.60;64.70;;;;;;5003042;28;93197;-42
2022/09/27 01:42:17;;;;;;;;;;;17.70;64.80;;;;;;4995230;28;93164;-42
2022/09/27 01:44:51;;;;;;;;;;;17.70;64.70;;;;;;4999883;28;93195;-42
2022/09/27 01:47:19;;;;;;;;;;;17.60;64.60;;;;;;5000491;28;92066;-42
2022/09/27 01:49:47;;;;;;;;;;;17.60;64.70;;;;;;5000211;28;92023;-42
2022/09/27 01:52:15;;;;;;;;;;;17.60;64.70;;;;;;4999397;28;93072;-42
2022/09/27 01:54:46;;;;;;;;;;;17.60;64.70;;;;;;5000316;28;92101;-42
2022/09/27 01:57:15;;;;;;;;;;;17.60;64.70;;;;;;5000282;28;92267;-42
2022/09/27 01:59:46;;;;;;;;;;;17.60;64.70;;;;;;4998962;28;92507;-42
2022/09/27 02:02:13;;;;;;;;;;;17.60;64.70;;;;;;5003083;28;92162;-42
2022/09/27 02:04:39;;;;;;;;;;;17.60;64.80;;;;;;4999330;28;93198;-42
2022/09/27 02:07:09;;;;;;;;;;;17.60;64.70;;;;;;4999367;28;92984;-42
2022/09/27 02:09:41;;;;;;;;;;;17.60;64.60;;;;;;4999295;28;93352;-42
2022/09/27 02:12:10;;;;;;;;;;;17.60;64.60;;;;;;4999321;28;93161;-42
2022/09/27 02:14:48;;;;;;;;;;;17.60;64.70;;;;;;4999880;28;92144;-42
2022/09/27 02:17:16;;;;;;;;;;;17.60;64.70;;;;;;4999851;28;92545;-42
2022/09/27 02:20:05;;;;;;;;;;;17.60;64.70;;;;;;4999538;28;93039;-42
2022/09/27 02:22:52;;;;;;;;;;;17.60;64.70;;;;;;4999526;28;92280;-42
2022/09/27 02:25:24;;;;;;;;;;;17.60;64.60;;;;;;5002527;28;91415;-42
2022/09/27 02:28:02;;;;;;;;;;;17.60;64.70;;;;;;4999713;28;92141;-42
2022/09/27 02:30:28;;;;;;;;;;;17.60;64.60;;;;;;4999575;28;92372;-42
2022/09/27 02:32:53;;;;;;;;;;;17.60;64.60;;;;;;4998562;28;94373;-42
2022/09/27 02:35:19;;;;;;;;;;;17.50;64.60;;;;;;4999677;28;92124;-42
2022/09/27 02:37:45;;;;;;;;;;;17.50;64.60;;;;;;4999595;28;92279;-42
2022/09/27 02:40:11;;;;;;;;;;;17.50;64.70;;;;;;4998820;28;93037;-42
2022/09/27 02:42:37;;;;;;;;;;;17.50;64.70;;;;;;4999721;28;92144;-42
2022/09/27 02:45:03;;;;;;;;;;;17.50;64.70;;;;;;4999555;28;92086;-42
2022/09/27 02:47:35;;;;;;;;;;;17.50;64.80;;;;;;5002042;28;95303;-42
2022/09/27 02:50:25;;;;;;;;;;;17.50;64.70;;;;;;4999761;28;91387;-42
2022/09/27 02:52:53;;;;;;;;;;;17.50;64.70;;;;;;4995641;28;93356;-42
2022/09/27 02:55:25;;;;;;;;;;;17.50;64.80;;;;;;4999548;28;92133;-42
2022/09/27 02:58:09;;;;;;;;;;;17.50;64.90;;;;;;4999051;28;93003;-42
2022/09/27 03:00:44;;;;;;;;;;;17.50;64.80;;;;;;4998812;28;92924;-42
2022/09/27 03:03:13;;;;;;;;;;;17.50;64.80;;;;;;4999156;28;92117;-42
2022/09/27 03:05:49;;;;;;;;;;;17.40;64.80;;;;;;4999144;28;92013;-42
2022/09/27 03:08:15;;;;;;;;;;;17.50;64.90;;;;;;4998502;28;93332;-42
2022/09/27 03:10:41;;;;;;;;;;;17.40;64.90;;;;;;5001401;28;91945;-42
2022/09/27 03:13:06;;;;;;;;;;;17.40;65.00;;;;;;4998784;28;93169;-42
2022/09/27 03:15:32;;;;;;;;;;;17.40;65.00;;;;;;4999348;28;91367;-42
2022/09/27 03:17:57;;;;;;;;;;;17.40;64.90;;;;;;4999245;28;92038;-42
2022/09/27 03:20:23;;;;;;;;;;;17.40;65.00;;;;;;4998625;28;92180;-42
2022/09/27 03:22:48;;;;;;;;;;;17.40;65.00;;;;;;4998595;28;93089;-42
2022/09/27 03:25:14;;;;;;;;;;;17.40;65.60;;;;;;4998866;28;93548;-42
2022/09/27 03:27:39;;;;;;;;;;;17.40;65.40;;;;;;4998519;28;93087;-42
2022/09/27 03:30:06;;;;;;;;;;;17.40;65.30;;;;;;5002056;28;92193;-42
2022/09/27 03:32:32;;;;;;;;;;;17.40;65.30;;;;;;4998396;28;93080;-42
2022/09/27 03:34:57;;;;;;;;;;;17.40;65.40;;;;;;4999027;28;92100;-42
2022/09/27 03:37:22;;;;;;;;;;;17.40;65.30;;;;;;4999163;28;92531;-42
2022/09/27 03:39:48;;;;;;;;;;;17.40;65.30;;;;;;4998948;28;92477;-42
2022/09/27 03:42:13;;;;;;;;;;;17.40;65.40;;;;;;4998814;28;92176;-42
2022/09/27 03:44:39;;;;;;;;;;;17.40;65.30;;;;;;4998765;28;92516;-42
2022/09/27 03:47:05;;;;;;;;;;;17.40;65.40;;;;;;4997596;28;93223;-42
2022/09/27 03:49:31;;;;;;;;;;;17.40;65.40;;;;;;4998786;28;92145;-42
2022/09/27 03:51:57;;;;;;;;;;;17.40;65.40;;;;;;5000996;28;92470;-42
2022/09/27 03:54:22;;;;;;;;;;;17.40;65.30;;;;;;4998850;28;92259;-42
2022/09/27 03:56:48;;;;;;;;;;;17.40;65.20;;;;;;4998656;28;92212;-42
2022/09/27 03:59:13;;;;;;;;;;;17.40;65.30;;;;;;4998207;28;93162;-42
2022/09/27 04:01:39;;;;;;;;;;;17.40;65.30;;;;;;4998743;28;92245;-42
2022/09/27 04:04:04;;;;;;;;;;;17.40;65.20;;;;;;4999097;28;91973;-42
2022/09/27 04:06:30;;;;;;;;;;;17.30;65.10;;;;;;4998254;28;93015;-42
2022/09/27 04:08:56;;;;;;;;;;;17.30;65.80;;;;;;4997972;28;92184;-42
2022/09/27 04:11:22;;;;;;;;;;;17.30;65.10;;;;;;4998043;28;93255;-42
2022/09/27 04:13:48;;;;;;;;;;;17.30;65.10;;;;;;5001007;28;93264;-42
2022/09/27 04:16:14;;;;;;;;;;;17.30;65.20;;;;;;4998395;28;92365;-42
2022/09/27 04:18:40;;;;;;;;;;;17.30;65.20;;;;;;4997794;28;93082;-42
2022/09/27 04:21:05;;;;;;;;;;;17.30;65.20;;;;;;4998556;28;92141;-42
2022/09/27 04:23:31;;;;;;;;;;;17.30;65.20;;;;;;5001908;28;92386;-42
2022/09/27 04:25:56;;;;;;;;;;;17.30;65.20;;;;;;5001366;28;93156;-42
2022/09/27 04:28:22;;;;;;;;;;;17.30;65.20;;;;;;5002305;28;91444;-42
2022/09/27 04:30:47;;;;;;;;;;;17.30;65.10;;;;;;5001660;28;92073;-42
2022/09/27 04:33:13;;;;;;;;;;;17.30;65.20;;;;;;5001079;28;93174;-42
2022/09/27 04:38:23;;;;;;;;;;;17.30;65.20;;;;;;5001312;28;92267;-42
2022/09/27 04:40:49;;;;;;;;;;;17.30;65.20;;;;;;5001612;28;92071;-42
2022/09/27 04:43:15;;;;;;;;;;;17.30;65.20;;;;;;5001451;28;92269;-42
2022/09/27 04:45:42;;;;;;;;;;;17.30;65.20;;;;;;5000803;28;93114;-42
2022/09/27 04:48:07;;;;;;;;;;;17.30;65.20;;;;;;5001381;28;92166;-42
2022/09/27 04:50:32;;;;;;;;;;;17.30;65.20;;;;;;5001291;28;92523;-42
2022/09/27 04:52:58;;;;;;;;;;;17.30;65.20;;;;;;5001175;28;93543;-42
2022/09/27 04:55:24;;;;;;;;;;;17.30;65.20;;;;;;5001340;28;92026;-42
2022/09/27 04:57:49;;;;;;;;;;;17.20;65.20;;;;;;5003809;28;92439;-42
2022/09/27 05:00:16;;;;;;;;;;;17.20;65.10;;;;;;5000732;28;93119;-42
2022/09/27 05:02:42;;;;;;;;;;;17.20;65.20;;;;;;5001181;28;92539;-42
2022/09/27 05:05:09;;;;;;;;;;;17.20;65.10;;;;;;5000670;28;92188;-42
2022/09/27 05:07:35;;;;;;;;;;;17.20;65.20;;;;;;5001048;28;92124;-42
2022/09/27 05:10:00;;;;;;;;;;;17.20;65.20;;;;;;5000863;28;92503;-42
2022/09/27 05:12:25;;;;;;;;;;;17.20;65.20;;;;;;5000399;28;92646;-42
2022/09/27 05:14:54;;;;;;;;;;;17.20;65.30;;;;;;5000951;28;92198;-42
2022/09/27 05:17:21;;;;;;;;;;;17.20;65.30;;;;;;5004071;28;92459;-42
2022/09/27 05:19:47;;;;;;;;;;;17.20;65.20;;;;;;5000782;28;93276;-42
2022/09/27 05:22:12;;;;;;;;;;;17.20;65.30;;;;;;5000813;28;92523;-42
2022/09/27 05:24:38;;;;;;;;;;;17.20;65.30;;;;;;4999456;28;94101;-42
2022/09/27 05:27:06;;;;;;;;;;;17.20;65.30;;;;;;5000829;28;92277;-42
2022/09/27 05:29:32;;;;;;;;;;;17.20;65.30;;;;;;5000608;28;91988;-42
2022/09/27 05:31:58;;;;;;;;;;;17.10;65.20;;;;;;5000183;28;93227;-42
2022/09/27 05:34:23;;;;;;;;;;;17.20;65.30;;;;;;5000572;28;92085;-42
2022/09/27 05:36:49;;;;;;;;;;;17.10;65.30;;;;;;5000690;28;92727;-42
2022/09/27 05:39:18;;;;;;;;;;;17.10;65.30;;;;;;5003033;28;93053;-42
2022/09/27 05:41:44;;;;;;;;;;;17.10;65.30;;;;;;5000726;28;92564;-42
2022/09/27 05:44:10;;;;;;;;;;;17.20;65.40;;;;;;4999715;28;93190;-42
2022/09/27 05:46:35;;;;;;;;;;;17.20;65.40;;;;;;5000529;28;92239;-42
2022/09/27 05:49:01;;;;;;;;;;;17.10;65.30;;;;;;5000031;28;93094;-42
2022/09/27 05:51:27;;;;;;;;;;;17.10;65.40;;;;;;4999485;28;93221;-42
2022/09/27 05:53:52;;;;;;;;;;;17.10;65.40;;;;;;5000227;28;92170;-42
2022/09/27 05:56:18;;;;;;;;;;;17.10;65.40;;;;;;5000302;28;92395;-42
2022/09/27 05:58:43;;;;;;;;;;;17.10;65.30;;;;;;4999425;28;93197;-42
2022/09/27 06:01:09;;;;;;;;;;;17.10;65.40;;;;;;5003244;28;92136;-42
2022/09/27 06:03:35;;;;;;;;;;;17.10;65.40;;;;;;5000050;28;92229;-42
2022/09/27 06:06:04;;;;;;;;;;;17.10;65.40;;;;;;5000770;28;91249;-42
2022/09/27 06:08:33;;;;;;;;;;;17.10;65.40;;;;;;4999642;28;91989;-42
2022/09/27 06:11:06;;;;;;;;;;;17.10;65.40;;;;;;4999305;28;93077;-42
2022/09/27 06:13:32;;;;;;;;;;;17.10;65.40;;;;;;4999604;28;93060;-42
2022/09/27 06:15:58;;;;;;;;;;;17.10;65.30;;;;;;4999837;28;93731;-42
2022/09/27 06:18:24;;;;;;;;;;;17.10;65.40;;;;;;4999504;28;93153;-42
2022/09/27 06:20:49;;;;;;;;;;;17.10;65.40;;;;;;4999783;28;92096;-42
2022/09/27 06:23:17;;;;;;;;;;;17.10;65.50;;;;;;5002533;28;92401;-42
2022/09/27 06:25:43;;;;;;;;;;;17.00;65.40;;;;;;4999840;28;92109;-42
2022/09/27 06:28:09;;;;;;;;;;;17.10;65.50;;;;;;4999905;28;92507;-42
2022/09/27 06:30:37;;;;;;;;;;;17.10;66.10;;;;;;4999668;28;92286;-42
2022/09/27 06:33:03;;;;;;;;;;;17.10;65.50;;;;;;4999803;28;92093;-43
2022/09/27 06:35:29;;;;;;;;;;;17.10;65.60;;;;;;4999701;28;92604;-42
2022/09/27 06:37:55;;;;;;;;;;;17.00;65.50;;;;;;4998562;28;93908;-42
2022/09/27 06:40:21;;;;;;;;;;;17.00;65.60;;;;;;4999600;28;92090;-42
2022/09/27 06:42:48;;;;;;;;;;;17.00;65.50;;;;;;4999770;28;92373;-42
2022/09/27 06:45:14;;;;;;;;;;;17.00;65.60;;;;;;5001455;28;93083;-43
2022/09/27 06:47:39;;;;;;;;;;;17.00;65.60;;;;;;4999603;28;92569;-42
2022/09/27 06:50:05;;;;;;;;;;;17.00;65.60;;;;;;4999031;28;93111;-42
2022/09/27 06:52:31;;;;;;;;;;;17.00;65.70;;;;;;4999184;28;92403;-42
2022/09/27 06:54:57;;;;;;;;;;;17.00;65.70;;;;;;4999867;28;92443;-42
2022/09/27 07:00:23;;;;;;;;;;;17.00;65.70;;;;;;4999799;28;92015;-42
2022/09/27 07:02:49;;;;;;;;;;;17.00;65.70;;;;;;4998938;28;92865;-42
2022/09/27 07:05:15;;;;;;;;;;;17.00;65.70;;;;;;4998685;28;93002;-42
2022/09/27 07:07:42;;;;;;;;;;;17.00;65.90;;;;;;5002155;28;92151;-42
2022/09/27 07:10:09;;;;;;;;;;;17.00;65.80;;;;;;4998377;28;93097;-42
2022/09/27 07:12:35;;;;;;;;;;;17.00;65.80;;;;;;4999298;28;92056;-42
2022/09/27 07:15:01;;;;;;;;;;;17.00;65.90;;;;;;4999243;28;92045;-42
2022/09/27 07:17:26;;;;;;;;;;;17.00;65.90;;;;;;4998628;28;93444;-42
2022/09/27 07:19:53;;;;;;;;;;;17.00;65.80;;;;;;4999663;28;91410;-42
2022/09/27 07:22:18;;;;;;;;;;;17.00;65.80;;;;;;4998704;28;92058;-42
2022/09/27 07:24:44;;;;;;;;;;;17.00;65.90;;;;;;4998624;28;93094;-42
2022/09/27 07:27:09;;;;;;;;;;;17.00;65.90;;;;;;5001762;28;93169;-42
2022/09/27 07:29:35;;;;;;;;;;;17.00;65.80;;;;;;4998940;28;93198;-42
2022/09/27 07:32:01;;;;;;;;;;;16.90;65.70;;;;;;4998828;28;92215;-42
2022/09/27 07:34:26;;;;;;;;;;;17.00;65.90;;;;;;4998953;28;92476;-42
2022/09/27 07:36:53;;;;;;;;;;;16.90;65.80;;;;;;4998272;28;93174;-42
2022/09/27 07:39:20;;;;;;;;;;;17.00;65.90;;;;;;4998645;28;92125;-42
2022/09/27 07:41:46;;;;;;;;;;;16.90;66.00;;;;;;4999031;28;92411;-42
2022/09/27 07:44:15;;;;;;;;;;;16.90;66.10;;;;;;4998836;28;92371;-42
2022/09/27 07:46:40;;;;;;;;;;;16.90;66.20;;;;;;4998783;28;92143;-42
2022/09/27 07:49:06;;;;;;;;;;;16.90;66.10;;;;;;5001422;28;92312;-42
2022/09/27 07:51:32;;;;;;;;;;;16.90;66.00;;;;;;4997705;28;93159;-42
2022/09/27 07:54:00;;;;;;;;;;;16.90;66.10;;;;;;4998686;28;93328;-42
2022/09/27 07:56:25;;;;;;;;;;;16.90;66.20;;;;;;4998549;28;92917;-42
2022/09/27 07:58:51;;;;;;;;;;;16.90;66.30;;;;;;5002326;28;92199;-42
2022/09/27 08:01:17;;;;;;;;;;;16.90;66.20;;;;;;5002102;28;92371;-42
2022/09/27 08:03:43;;;;;;;;;;;16.90;66.10;;;;;;5001764;28;93146;-41
2022/09/27 08:06:09;;;;;;;;;;;16.90;66.20;;;;;;5002051;28;92135;-42
2022/09/27 08:08:34;;;;;;;;;;;16.90;66.00;;;;;;5002127;28;92761;-42
2022/09/27 08:11:00;;;;;;;;;;;16.90;66.10;;;;;;5004436;28;93015;-42
2022/09/27 08:13:25;;;;;;;;;;;16.90;66.10;;;;;;5001986;28;92353;-42
2022/09/27 08:15:51;;;;;;;;;;;16.90;66.00;;;;;;5000764;28;94002;-42
2022/09/27 08:18:17;;;;;;;;;;;16.90;66.00;;;;;;5001866;28;92135;-42
2022/09/27 08:20:43;;;;;;;;;;;16.90;66.00;;;;;;5001859;28;92085;-42
2022/09/27 08:23:08;;;;;;;;;;;16.90;66.00;;;;;;5001518;28;93273;-42
2022/09/27 08:25:34;;;;;;;;;;;16.90;66.00;;;;;;5001764;28;92115;-42
2022/09/27 08:28:00;;;;;;;;;;;16.90;66.00;;;;;;5001960;28;92400;-42
2022/09/27 08:30:27;;;;;;;;;;;16.90;66.10;;;;;;5000978;28;93215;-42
2022/09/27 08:32:56;;;;;;;;;;;16.90;66.10;;;;;;5005171;28;91478;-42
2022/09/27 08:35:22;;;;;;;;;;;16.90;65.90;;;;;;5000862;28;92641;-42
2022/09/27 08:37:58;;;;;;;;;;;16.90;66.20;;;;;;5001665;28;92207;-42
2022/09/27 08:40:27;;;;;;;;;;;16.90;66.20;;;;;;4999467;28;95225;-42
2022/09/27 08:43:14;;;;;;;;;;;16.90;66.20;;;;;;5000851;28;93192;-42
2022/09/27 08:46:05;;;;;;;;;;;16.90;66.60;;;;;;4989719;28;92132;-42
2022/09/27 08:48:31;;;;;;;;;;;16.90;66.40;;;;;;4999781;28;92507;-42
2022/09/27 08:50:57;;;;;;;;;;;16.90;66.40;;;;;;5000635;28;93081;-42
2022/09/27 08:53:26;;;;;;;;;;;16.90;66.40;;;;;;5001255;28;92128;-42
2022/09/27 08:55:59;;;;;;;;;;;16.90;66.40;;;;;;5003802;28;91973;-42
2022/09/27 08:58:34;;;;;;;;;;;16.90;66.40;;;;;;5001320;28;91396;-42
2022/09/27 09:01:05;;;;;;;;;;;16.90;66.30;;;;;;5001298;28;92008;-42
2022/09/27 09:03:33;;;;;;;;;;;16.90;66.40;;;;;;5000491;28;92150;-42
2022/09/27 09:06:05;;;;;;;;;;;16.90;66.50;;;;;;5000445;28;93042;-41
2022/09/27 09:08:30;;;;;;;;;;;16.90;66.50;;;;;;5000105;28;93358;-42
2022/09/27 09:13:59;;;;;;;;;;;16.90;66.40;;;;;;5001171;28;91953;-42
2022/09/27 09:16:37;;;;;;;;;;;16.90;66.60;;;;;;5001284;28;92510;-42
2022/09/27 09:19:41;;;;;;;;;;;16.90;66.60;;;;;;5003462;28;93162;-42
2022/09/27 09:22:27;;;;;;;;;;;16.90;66.90;;;;;;4978619;28;92526;-42
2022/09/27 09:24:59;;;;;;;;;;;16.90;66.70;;;;;;4978489;28;92320;-42
2022/09/27 09:27:31;;;;;;;;;;;16.90;66.70;;;;;;4992556;28;92030;-42
2022/09/27 09:30:17;;;;;;;;;;;17.00;67.00;;;;;;4999413;28;92748;-42
2022/09/27 09:33:01;;;;;;;;;;;17.00;66.80;;;;;;4999669;28;93944;-42
2022/09/27 09:35:30;;;;;;;;;;;17.00;67.00;;;;;;5000639;28;92131;-42
2022/09/27 09:37:57;;;;;;;;;;;17.00;67.00;;;;;;5000467;28;92354;-42
2022/09/27 09:40:36;;;;;;;;;;;17.00;67.00;;;;;;5003115;28;93710;-42
2022/09/27 09:43:01;;;;;;;;;;;17.00;66.80;;;;;;5000757;28;92497;-42
2022/09/27 09:45:31;;;;;;;;;;;17.00;67.10;;;;;;5000115;28;93184;-42
2022/09/27 09:48:00;;;;;;;;;;;17.00;67.50;;;;;;5000512;28;92148;-42
2022/09/27 09:50:41;;;;;;;;;;;17.00;67.40;;;;;;5000884;28;91663;-42
2022/09/27 09:53:25;;;;;;;;;;;17.00;67.40;;;;;;4999747;28;93138;-42
2022/09/27 09:55:54;;;;;;;;;;;17.00;67.60;;;;;;5000363;28;92456;-42
2022/09/27 09:58:25;;;;;;;;;;;17.00;67.20;;;;;;4999868;28;93226;-42
2022/09/27 10:00:54;;;;;;;;;;;17.00;67.40;;;;;;4999949;28;93211;-42
2022/09/27 10:03:19;;;;;;;;;;;17.00;67.40;;;;;;5003375;28;92193;-42
2022/09/27 10:05:45;;;;;;;;;;;17.00;67.00;;;;;;4999731;28;93068;-42
2022/09/27 10:08:21;;;;;;;;;;;17.00;67.40;;;;;;5000192;28;92102;-42
2022/09/27 10:10:46;;;;;;;;;;;17.00;67.40;;;;;;5000236;28;91998;-42
2022/09/27 10:13:16;;;;;;;;;;;17.00;67.10;;;;;;4999494;28;92990;-42
2022/09/27 10:15:42;;;;;;;;;;;17.00;67.00;;;;;;5000390;28;91485;-42
2022/09/27 10:18:11;;;;;;;;;;;17.00;67.30;;;;;;5000033;28;92019;-42
2022/09/27 10:20:44;;;;;;;;;;;17.00;67.10;;;;;;4998575;28;93053;-42
2022/09/27 10:23:14;;;;;;;;;;;17.00;67.00;;;;;;4999336;28;93384;-42
2022/09/27 10:25:48;;;;;;;;;;;17.00;67.40;;;;;;5002485;28;93431;-42
2022/09/27 10:28:32;;;;;;;;;;;17.00;67.20;;;;;;4999540;28;92275;-42
2022/09/27 10:31:03;;;;;;;;;;;17.00;67.20;;;;;;4999811;28;92455;-42
2022/09/27 10:33:30;;;;;;;;;;;17.00;67.50;;;;;;4999388;28;93091;-42
2022/09/27 10:35:56;;;;;;;;;;;17.00;67.50;;;;;;4999675;28;92185;-42
2022/09/27 10:38:22;;;;;;;;;;;17.00;67.40;;;;;;4999869;28;91993;-42
2022/09/27 10:40:48;;;;;;;;;;;17.10;67.30;;;;;;4999653;28;92284;-42
2022/09/27 10:43:40;;;;;;;;;;;17.10;67.50;;;;;;4999711;28;92598;-42
2022/09/27 10:46:08;;;;;;;;;;;17.10;67.80;;;;;;4998268;28;92709;-42
2022/09/27 10:48:35;;;;;;;;;;;17.10;67.70;;;;;;5001394;28;94124;-42
2022/09/27 10:51:02;;;;;;;;;;;17.20;67.80;;;;;;4999516;28;93399;-42
2022/09/27 10:53:28;;;;;;;;;;;17.20;68.00;;;;;;4998830;28;93045;-42
2022/09/27 10:55:54;;;;;;;;;;;17.20;67.60;;;;;;4999396;28;92056;-42
2022/09/27 10:58:23;;;;;;;;;;;17.20;67.80;;;;;;4999540;28;92242;-42
2022/09/27 11:01:01;;;;;;;;;;;17.20;67.60;;;;;;4999016;28;93019;-42
2022/09/27 11:03:27;;;;;;;;;;;17.20;67.70;;;;;;4999194;28;92100;-42
2022/09/27 11:05:54;;;;;;;;;;;17.20;67.80;;;;;;4999735;28;92291;-42
2022/09/27 11:08:27;;;;;;;;;;;17.20;67.60;;;;;;4998658;28;93115;-42
2022/09/27 11:11:00;;;;;;;;;;;17.20;68.00;;;;;;5002365;28;92328;-42
2022/09/27 11:13:31;;;;;;;;;;;17.20;67.70;;;;;;4998142;28;93891;-43
2022/09/27 11:16:08;;;;;;;;;;;17.30;67.80;;;;;;4999213;28;91981;-42
2022/09/27 11:18:34;;;;;;;;;;;17.20;67.90;;;;;;4999147;28;92099;-43
2022/09/27 11:20:59;;;;;;;;;;;17.30;67.90;;;;;;4997380;28;96224;-43
2022/09/27 11:23:36;;;;;;;;;;;17.30;67.80;;;;;;4999207;28;91988;-42
2022/09/27 11:26:15;;;;;;;;;;;17.30;68.30;;;;;;4999085;28;92380;-42
2022/09/27 11:28:46;;;;;;;;;;;17.30;68.20;;;;;;4998645;28;93232;-42
2022/09/27 11:31:18;;;;;;;;;;;17.30;68.10;;;;;;5000897;28;91426;-42
2022/09/27 11:33:58;;;;;;;;;;;17.30;68.30;;;;;;5005283;28;92006;-42
2022/09/27 11:36:36;;;;;;;;;;;17.30;68.30;;;;;;5002553;28;92078;-43
2022/09/27 11:39:10;;;;;;;;;;;17.30;68.40;;;;;;5001876;28;92936;-42
2022/09/27 11:41:59;;;;;;;;;;;17.30;68.40;;;;;;5002041;28;93094;-42
2022/09/27 11:44:40;;;;;;;;;;;17.30;68.80;;;;;;5002502;28;91975;-43
2022/09/27 11:47:05;;;;;;;;;;;17.30;68.50;;;;;;5002260;28;92325;-42
2022/09/27 11:49:49;;;;;;;;;;;17.30;68.50;;;;;;5002012;28;93038;-42
2022/09/27 11:52:21;;;;;;;;;;;17.30;68.70;;;;;;5001994;28;92268;-42
2022/09/27 11:55:05;;;;;;;;;;;17.30;68.60;;;;;;5004767;28;92566;-42
2022/09/27 11:57:51;;;;;;;;;;;17.20;69.30;;;;;;5002748;28;91595;-42
2022/09/27 12:00:16;;;;;;;;;;;17.30;68.90;;;;;;4997249;28;92255;-43
2022/09/27 12:02:42;;;;;;;;;;;17.20;69.10;;;;;;5001637;28;92968;-42
2022/09/27 12:05:19;;;;;;;;;;;17.20;69.20;;;;;;5001543;28;93107;-42
2022/09/27 12:07:45;;;;;;;;;;;17.30;69.10;;;;;;5002159;28;93324;-42
2022/09/27 12:10:13;;;;;;;;;;;17.20;68.90;;;;;;5001044;28;92999;-43
2022/09/27 12:12:43;;;;;;;;;;;17.20;69.10;;;;;;5001832;28;92217;-42
2022/09/27 12:15:17;;;;;;;;;;;17.30;69.10;;;;;;5001904;28;92386;-42
2022/09/27 12:17:44;;;;;;;;;;;17.30;69.40;;;;;;5004484;28;92831;-42
2022/09/27 12:20:36;;;;;;;;;;;17.30;69.30;;;;;;5001736;28;92727;-42
2022/09/27 12:23:13;;;;;;;;;;;17.30;70.00;;;;;;5000466;28;92359;-42
2022/09/27 12:25:40;;;;;;;;;;;17.30;69.30;;;;;;5001870;28;92412;-42
2022/09/27 12:28:13;;;;;;;;;;;17.30;69.40;;;;;;5001739;28;92309;-42
2022/09/27 12:30:40;;;;;;;;;;;17.30;69.60;;;;;;5000342;28;93988;-43
2022/09/27 12:33:21;;;;;;;;;;;17.40;70.00;;;;;;5001563;28;92110;-43
2022/09/27 12:35:55;;;;;;;;;;;17.40;69.80;;;;;;5001577;28;92404;-43
2022/09/27 12:38:23;;;;;;;;;;;17.40;69.60;;;;;;5001085;28;93217;-42
2022/09/27 12:40:54;;;;;;;;;;;17.30;69.40;;;;;;5004535;28;92131;-43
2022/09/27 12:43:22;;;;;;;;;;;17.40;70.30;;;;;;5000064;28;93213;-42
2022/09/27 12:46:23;;;;;;;;;;;17.30;69.70;;;;;;5001206;28;92146;-43
2022/09/27 12:49:07;;;;;;;;;;;17.30;70.90;;;;;;4979336;28;92436;-42
2022/09/27 12:51:59;;;;;;;;;;;17.30;70.50;;;;;;4998427;28;93058;-42
2022/09/27 12:54:46;;;;;;;;;;;17.30;70.50;;;;;;4999780;28;92019;-43
2022/09/27 12:57:20;;;;;;;;;;;17.20;70.50;;;;;;5000912;28;92985;-42
2022/09/27 12:59:46;;;;;;;;;;;17.30;70.80;;;;;;5000643;28;93067;-42
2022/09/27 13:02:12;;;;;;;;;;;17.20;70.60;;;;;;5001389;28;92170;-42
2022/09/27 13:04:56;;;;;;;;;;;17.20;71.10;;;;;;5003695;28;92400;-42
2022/09/27 13:07:40;;;;;;;;;;;17.30;71.00;;;;;;5001301;28;92066;-42
2022/09/27 13:10:15;;;;;;;;;;;17.30;70.60;;;;;;5000473;28;92507;-42
2022/09/27 13:12:46;;;;;;;;;;;17.30;70.90;;;;;;5000602;28;93293;-42
2022/09/27 13:15:13;;;;;;;;;;;17.20;71.20;;;;;;5001442;28;91153;-43
2022/09/27 13:17:39;;;;;;;;;;;17.20;71.50;;;;;;5000858;28;92134;-42
2022/09/27 13:20:23;;;;;;;;;;;17.20;72.20;;;;;;5000348;28;93145;-42
2022/09/27 13:22:50;;;;;;;;;;;17.10;72.30;;;;;;5000317;28;93012;-42
2022/09/27 13:25:34;;;;;;;;;;;17.10;72.30;;;;;;5000584;28;93289;-42
2022/09/27 13:28:01;;;;;;;;;;;17.10;72.50;;;;;;5003500;28;93190;-42
2022/09/27 13:30:26;;;;;;;;;;;17.10;72.40;;;;;;5000918;28;92444;-42
2022/09/27 13:33:07;;;;;;;;;;;17.10;72.50;;;;;;5000191;28;93284;-42
2022/09/27 13:35:33;;;;;;;;;;;17.10;72.50;;;;;;5000962;28;92370;-42
2022/09/27 13:37:58;;;;;;;;;;;17.10;72.50;;;;;;5000998;28;92370;-43
2022/09/27 13:40:24;;;;;;;;;;;17.20;72.50;;;;;;5000448;28;91565;-42
2022/09/27 13:43:04;;;;;;;;;;;17.20;72.80;;;;;;5000313;28;92191;-42
2022/09/27 13:45:33;;;;;;;;;;;17.20;72.30;;;;;;5000758;28;92515;-42
2022/09/27 13:47:59;;;;;;;;;;;17.20;73.20;;;;;;4999215;28;94201;-42
2022/09/27 13:50:27;;;;;;;;;;;17.10;72.60;;;;;;5003568;28;92054;-42
2022/09/27 13:52:57;;;;;;;;;;;17.20;72.60;;;;;;4999429;28;93095;-42
2022/09/27 13:55:41;;;;;;;;;;;17.20;72.70;;;;;;5000140;28;92229;-42
2022/09/27 13:58:25;;;;;;;;;;;17.20;72.80;;;;;;5000294;28;92179;-43
2022/09/27 14:00:53;;;;;;;;;;;17.20;72.50;;;;;;4999907;28;93003;-42
2022/09/27 14:03:30;;;;;;;;;;;17.20;72.70;;;;;;5000148;28;92189;-42
2022/09/27 14:06:17;;;;;;;;;;;17.20;72.90;;;;;;5000981;28;92401;-42
2022/09/27 14:08:50;;;;;;;;;;;17.10;72.80;;;;;;4999461;28;93359;-42
2022/09/27 14:11:21;;;;;;;;;;;17.10;73.00;;;;;;5003267;28;91978;-42
2022/09/27 14:13:48;;;;;;;;;;;17.20;72.50;;;;;;4998862;28;93821;-43
2022/09/27 14:16:14;;;;;;;;;;;17.20;72.70;;;;;;4999972;28;91982;-42
2022/09/27 14:18:53;;;;;;;;;;;17.20;72.70;;;;;;5000072;28;92042;-42
2022/09/27 14:21:38;;;;;;;;;;;17.20;72.80;;;;;;4999250;28;93033;-42
2022/09/27 14:24:22;;;;;;;;;;;17.20;72.90;;;;;;5000072;28;91877;-42
2022/09/27 14:26:48;;;;;;;;;;;17.20;72.80;;;;;;4999719;28;92453;-42
2022/09/27 14:29:14;;;;;;;;;;;17.20;73.00;;;;;;4999120;28;93233;-42
2022/09/27 14:31:40;;;;;;;;;;;17.20;72.90;;;;;;4999876;28;91428;-41
2022/09/27 14:34:07;;;;;;;;;;;17.20;72.80;;;;;;5002477;28;92152;-41
2022/09/27 14:39:36;;;;;;;;;;;17.20;72.80;;;;;;4998741;28;93115;-41
2022/09/27 14:42:04;;;;;;;;;;;17.20;73.00;;;;;;4999019;28;93165;-41